Time;durP1;ratioP1;P1;durP2;ratioP2;P2;SDS_P1;SDS_P2;PMS_P1;PMS_P2;Temp;Humidity;BMP_temperature;BMP_pressure;BME280_temperature;BME280_humidity;BME280_pressure;Samples;Min_cycle;Max_cycle;Signal;HPM_P1;HPM_P2
2023/05/04 05:00:59;;;;;;;;;15.00;15.00;;;;;15.62;51.69;101198.47;6231614;22;1356779;-63
2023/05/04 05:03:24;;;;;;;;;19.00;15.33;;;;;15.61;51.84;101193.22;6309158;22;45447;-63
2023/05/04 05:05:50;;;;;;;;;17.67;17.67;;;;;15.61;52.56;101194.06;6308973;22;45930;-62
2023/05/04 05:08:15;;;;;;;;;17.00;15.67;;;;;15.58;52.57;101196.06;6309402;22;45261;-62
2023/05/04 05:10:41;;;;;;;;;18.33;18.00;;;;;15.57;52.48;101194.38;6309823;22;45221;-62
2023/05/04 05:13:06;;;;;;;;;21.67;18.00;;;;;15.55;52.49;101189.09;6306977;22;45201;-62
2023/05/04 05:15:32;;;;;;;;;16.67;15.00;;;;;15.51;53.65;101192.94;6307261;22;46696;-63
2023/05/04 05:17:57;;;;;;;;;18.00;15.67;;;;;15.52;52.86;101189.31;6307762;22;71117;-62
2023/05/04 05:20:23;;;;;;;;;14.67;14.33;;;;;15.51;52.94;101187.56;6308798;22;49432;-63
2023/05/04 05:22:48;;;;;;;;;18.00;16.33;;;;;15.53;53.20;101199.06;6307722;22;45249;-62
2023/05/04 05:25:14;;;;;;;;;17.00;15.67;;;;;15.54;53.09;101190.94;6306167;22;47067;-62
2023/05/04 05:27:39;;;;;;;;;19.33;14.67;;;;;15.57;52.74;101189.88;6308207;22;62861;-62
2023/05/04 05:30:05;;;;;;;;;19.00;16.33;;;;;15.59;52.89;101190.66;6308687;22;45879;-62
2023/05/04 05:32:31;;;;;;;;;15.00;14.33;;;;;15.64;52.69;101185.81;6307323;22;45429;-62
2023/05/04 05:34:56;;;;;;;;;22.00;18.67;;;;;15.70;52.55;101188.09;6308376;22;46182;-62
2023/05/04 05:37:22;;;;;;;;;23.00;17.67;;;;;15.76;53.06;101194.03;6308876;22;45253;-62
2023/05/04 05:39:47;;;;;;;;;16.67;16.33;;;;;15.84;53.10;101194.44;6309486;22;45801;-63
2023/05/04 05:42:12;;;;;;;;;20.00;18.33;;;;;15.93;52.79;101200.97;6307313;22;60813;-62
2023/05/04 05:44:38;;;;;;;;;21.33;18.67;;;;;16.01;52.86;101198.69;6309225;22;45393;-62
2023/05/04 05:47:04;;;;;;;;;15.67;15.00;;;;;16.09;52.74;101204.38;6308508;22;45435;-62
2023/05/04 05:49:30;;;;;;;;;16.67;13.67;;;;;16.18;52.28;101203.75;6309631;22;45249;-63
2023/05/04 05:51:56;;;;;;;;;17.67;16.00;;;;;16.26;52.05;101218.50;6308535;22;45259;-63
2023/05/04 05:54:24;;;;;;;;;17.00;13.33;;;;;16.31;52.16;101213.66;6280337;22;46141;-63
2023/05/04 05:56:49;;;;;;;;;16.00;14.67;;;;;16.42;52.34;101221.84;6304842;22;45243;-63
2023/05/04 05:59:15;;;;;;;;;14.00;13.67;;;;;16.53;52.16;101221.09;6309285;22;45276;-63
2023/05/04 06:01:40;;;;;;;;;14.33;13.33;;;;;16.64;52.25;101223.06;6308389;22;45368;-63
2023/05/04 06:04:06;;;;;;;;;19.00;17.00;;;;;16.75;52.03;101215.13;6308615;22;45341;-62
2023/05/04 06:06:31;;;;;;;;;15.33;15.33;;;;;16.87;51.72;101208.03;6306527;22;45281;-63
2023/05/04 06:08:57;;;;;;;;;14.33;13.33;;;;;16.98;51.69;101199.25;6306314;22;53610;-63
2023/05/04 06:11:22;;;;;;;;;16.67;15.33;;;;;17.08;50.79;101194.06;6308732;22;45400;-63
2023/05/04 06:13:47;;;;;;;;;20.67;14.33;;;;;17.17;50.56;101193.44;6307081;22;70007;-63
2023/05/04 06:16:13;;;;;;;;;16.67;16.00;;;;;17.29;50.77;101179.09;6306141;22;54697;-63
2023/05/04 06:18:39;;;;;;;;;18.67;14.33;;;;;17.44;50.54;101173.56;6309061;22;45427;-62
2023/05/04 06:21:04;;;;;;;;;17.00;15.33;;;;;17.59;49.84;101169.75;6310110;22;45261;-64
2023/05/04 06:23:30;;;;;;;;;15.00;13.00;;;;;17.74;50.05;101172.28;6310544;22;46147;-63
2023/05/04 06:25:56;;;;;;;;;13.67;13.67;;;;;18.16;49.31;101161.94;6308006;22;45290;-62
2023/05/04 06:28:21;;;;;;;;;16.00;14.33;;;;;18.46;48.72;101163.25;6308641;22;45227;-62
2023/05/04 06:30:47;;;;;;;;;15.00;14.00;;;;;18.94;48.23;101160.44;6308997;22;45456;-62
2023/05/04 06:33:12;;;;;;;;;14.67;14.33;;;;;20.02;46.94;101152.59;6311017;22;46108;-62
2023/05/04 06:35:38;;;;;;;;;17.33;14.00;;;;;21.46;43.48;101158.06;6308910;22;45214;-63
2023/05/04 06:38:03;;;;;;;;;14.00;14.00;;;;;23.03;42.79;101163.34;6309777;22;67174;-63
2023/05/04 06:40:28;;;;;;;;;13.67;13.00;;;;;24.70;41.11;101173.00;6310636;22;50280;-63
2023/05/04 06:42:54;;;;;;;;;16.00;15.33;;;;;26.32;38.58;101165.66;6282540;22;45974;-63
2023/05/04 06:45:19;;;;;;;;;11.67;11.67;;;;;27.07;36.82;101157.13;6309568;22;72576;-63
2023/05/04 06:47:45;;;;;;;;;14.33;12.00;;;;;27.49;35.66;101166.00;6310756;22;47579;-61
2023/05/04 06:50:11;;;;;;;;;12.67;12.67;;;;;27.64;35.17;101171.56;6310398;22;45339;-61
2023/05/04 06:52:41;;;;;;;;;12.33;12.33;;;;;27.99;33.96;101166.53;6310707;22;45812;-61
2023/05/04 06:55:07;;;;;;;;;18.67;13.33;;;;;27.82;32.15;101167.66;6310834;22;45218;-61
2023/05/04 06:57:32;;;;;;;;;12.67;12.33;;;;;27.60;32.53;101166.63;6310315;22;45175;-61
2023/05/04 06:59:58;;;;;;;;;13.00;11.67;;;;;27.54;32.98;101160.84;6309482;22;69553;-62
2023/05/04 07:02:23;;;;;;;;;12.33;10.67;;;;;28.01;32.32;101153.53;6308623;22;45228;-61
2023/05/04 07:04:49;;;;;;;;;12.00;11.00;;;;;27.84;31.38;101151.97;6308471;22;45243;-61
2023/05/04 07:07:14;;;;;;;;;11.33;11.33;;;;;27.29;31.66;101151.94;6310640;22;45305;-61
2023/05/04 07:09:41;;;;;;;;;10.00;10.00;;;;;26.83;31.76;101152.63;6309543;22;67973;-61
2023/05/04 07:12:06;;;;;;;;;15.00;11.33;;;;;26.45;32.39;101160.50;6309390;22;45345;-61
2023/05/04 07:14:32;;;;;;;;;12.00;11.33;;;;;26.21;31.61;101154.06;6308118;22;45362;-61
2023/05/04 07:16:58;;;;;;;;;12.67;11.00;;;;;26.16;32.82;101148.28;6309763;22;64990;-61
2023/05/04 07:19:24;;;;;;;;;11.00;11.00;;;;;26.52;32.33;101152.53;6311155;22;45225;-61
2023/05/04 07:21:49;;;;;;;;;11.00;10.00;;;;;27.36;32.25;101146.59;6310786;22;45281;-61
2023/05/04 07:24:14;;;;;;;;;14.00;11.00;;;;;29.01;30.89;101148.78;6310446;22;45317;-61
2023/05/04 07:26:40;;;;;;;;;12.67;12.67;;;;;30.43;29.65;101151.13;6308687;22;45784;-61
2023/05/04 07:29:05;;;;;;;;;9.33;9.33;;;;;31.33;28.62;101154.00;6309772;22;64769;-61
2023/05/04 07:31:31;;;;;;;;;14.67;12.67;;;;;31.48;27.75;101165.66;6310210;22;46013;-61
2023/05/04 07:33:56;;;;;;;;;13.33;12.33;;;;;31.74;26.93;101172.31;6310981;22;45150;-61
2023/05/04 07:36:23;;;;;;;;;9.33;9.33;;;;;31.71;27.46;101169.13;6309754;22;62916;-61
2023/05/04 07:38:49;;;;;;;;;9.67;9.67;;;;;32.63;27.17;101163.88;6310178;22;45368;-61
2023/05/04 07:41:14;;;;;;;;;15.00;12.00;;;;;33.55;25.99;101168.47;6309107;22;69350;-60
2023/05/04 07:43:42;;;;;;;;;11.00;9.00;;;;;33.57;25.18;101174.59;6307653;22;68563;-61
2023/05/04 07:46:08;;;;;;;;;11.00;9.33;;;;;33.53;25.19;101154.91;6310846;22;45442;-61
2023/05/04 07:48:33;;;;;;;;;16.67;15.00;;;;;34.06;25.53;101155.63;6307850;22;64545;-61
2023/05/04 07:50:58;;;;;;;;;13.00;11.00;;;;;34.25;24.03;101145.47;6309985;22;46181;-61
2023/05/04 07:53:25;;;;;;;;;12.00;10.00;;;;;34.69;23.29;101168.44;6309335;22;69273;-61
2023/05/04 07:55:50;;;;;;;;;12.00;11.67;;;;;35.23;23.54;101165.09;6308481;22;45207;-60
2023/05/04 07:58:16;;;;;;;;;11.33;10.33;;;;;35.01;22.94;101160.03;6309934;22;45665;-61
2023/05/04 08:00:41;;;;;;;;;20.33;17.00;;;;;35.02;23.19;101163.63;6308157;22;45374;-60
2023/05/04 08:03:06;;;;;;;;;11.67;11.00;;;;;34.29;23.04;101152.25;6308155;22;68970;-60
2023/05/04 08:05:32;;;;;;;;;12.33;9.67;;;;;33.37;23.83;101150.75;6309304;22;67954;-62
2023/05/04 08:07:57;;;;;;;;;12.67;10.00;;;;;33.93;23.79;101153.81;6310547;22;45421;-62
2023/05/04 08:10:22;;;;;;;;;10.67;9.33;;;;;35.21;23.06;101159.75;6307772;22;47136;-61
2023/05/04 08:12:48;;;;;;;;;13.67;11.00;;;;;35.92;22.57;101146.25;6308978;22;65731;-61
2023/05/04 08:15:13;;;;;;;;;10.00;10.00;;;;;37.06;22.03;101152.47;6309488;22;58865;-61
2023/05/04 08:17:39;;;;;;;;;10.33;8.00;;;;;37.70;20.69;101164.53;6308540;22;45203;-62
2023/05/04 08:20:08;;;;;;;;;11.67;11.33;;;;;38.12;20.59;101155.84;6310803;22;46207;-61
2023/05/04 08:22:34;;;;;;;;;11.33;11.33;;;;;38.95;19.90;101166.25;6311246;22;45241;-62
2023/05/04 08:24:59;;;;;;;;;14.00;12.00;;;;;39.53;18.70;101160.25;6309611;22;45224;-61
2023/05/04 08:27:24;;;;;;;;;8.00;8.00;;;;;38.63;18.77;101164.16;6309178;22;49278;-61
2023/05/04 08:29:50;;;;;;;;;13.33;12.67;;;;;38.69;18.92;101154.78;6310407;22;67483;-61
2023/05/04 08:32:16;;;;;;;;;19.33;19.00;;;;;38.63;18.87;101150.25;6309410;22;50511;-61
2023/05/04 08:34:41;;;;;;;;;11.00;11.00;;;;;38.12;19.21;101155.00;6310892;22;45213;-61
2023/05/04 08:37:06;;;;;;;;;10.00;10.00;;;;;38.90;19.01;101151.47;6308360;22;69578;-61
2023/05/04 08:39:32;;;;;;;;;11.00;10.00;;;;;39.36;18.80;101147.31;6309856;22;45175;-61
2023/05/04 08:41:57;;;;;;;;;13.33;12.00;;;;;40.46;17.90;101133.22;6310858;22;45221;-63
2023/05/04 08:44:23;;;;;;;;;9.33;9.33;;;;;41.67;16.61;101127.53;6311271;22;45191;-61
2023/05/04 08:46:52;;;;;;;;;9.00;7.67;;;;;41.60;16.66;101123.31;6311951;22;45172;-61
2023/05/04 08:49:21;;;;;;;;;8.33;8.33;;;;;42.25;16.25;101123.59;6311272;22;45194;-61
2023/05/04 08:51:48;;;;;;;;;9.00;8.67;;;;;43.41;15.56;101123.69;6311463;22;45154;-61
2023/05/04 08:54:14;;;;;;;;;15.33;11.67;;;;;44.82;15.73;101125.69;6311350;22;45226;-61
2023/05/04 08:56:39;;;;;;;;;8.00;7.33;;;;;45.51;14.15;101124.47;6310753;22;52915;-61
2023/05/04 08:59:05;;;;;;;;;10.67;10.67;;;;;46.48;13.96;101119.09;6281749;22;72350;-62
2023/05/04 09:01:31;;;;;;;;;12.33;12.00;;;;;47.10;13.80;101109.31;6281467;22;72655;-61
2023/05/04 09:03:56;;;;;;;;;9.33;8.33;;;;;47.30;12.91;101109.97;6308545;22;67078;-61
2023/05/04 09:06:23;;;;;;;;;7.00;7.00;;;;;45.09;13.31;101113.00;6309759;22;45259;-61
2023/05/04 09:08:48;;;;;;;;;11.00;10.67;;;;;44.20;13.66;101128.34;6308054;22;70616;-62
2023/05/04 09:11:13;;;;;;;;;11.33;10.00;;;;;45.29;14.19;101125.91;6308819;22;45957;-61
2023/05/04 09:13:39;;;;;;;;;11.00;11.00;;;;;46.59;12.02;101136.56;6311303;22;45403;-62
2023/05/04 09:16:05;;;;;;;;;10.67;10.00;;;;;44.81;12.65;101138.03;6311170;22;45176;-61
2023/05/04 09:18:41;;;;;;;;;11.67;11.67;;;;;43.24;13.63;101132.47;6309305;22;46881;-61
2023/05/04 09:21:07;;;;;;;;;10.00;9.33;;;;;44.31;13.79;101131.91;6311297;22;45157;-61
2023/05/04 09:23:33;;;;;;;;;10.67;9.00;;;;;46.01;13.17;101115.47;6309997;22;45376;-61
2023/05/04 09:25:58;;;;;;;;;11.00;10.00;;;;;47.70;12.22;101113.75;6310751;22;45167;-61
2023/05/04 09:28:35;;;;;;;;;11.33;10.00;;;;;48.91;11.89;101099.72;6310375;22;46050;-61
2023/05/04 09:31:02;;;;;;;;;8.00;7.33;;;;;50.21;10.56;101105.50;6309321;22;45322;-61
2023/05/04 09:33:27;;;;;;;;;7.00;7.00;;;;;50.78;10.78;101118.34;6311007;22;45116;-61
2023/05/04 09:35:53;;;;;;;;;10.00;10.00;;;;;49.04;11.04;101112.00;6311203;22;45400;-61
2023/05/04 09:38:28;;;;;;;;;7.67;7.67;;;;;45.53;12.23;101110.94;6310286;22;65998;-61
2023/05/04 09:40:54;;;;;;;;;10.00;10.00;;;;;42.78;13.57;101111.16;6310884;22;45246;-61
2023/05/04 09:43:19;;;;;;;;;11.33;10.00;;;;;41.05;14.75;101106.19;6311041;22;45271;-61
2023/05/04 09:45:46;;;;;;;;;8.67;7.33;;;;;40.16;15.78;101106.84;6311292;22;45128;-61
2023/05/04 09:48:18;;;;;;;;;9.00;9.00;;;;;39.58;15.64;101115.78;6310242;22;45529;-61
2023/05/04 09:50:51;;;;;;;;;9.67;9.67;;;;;39.73;16.04;101101.22;6311320;22;45226;-61
2023/05/04 09:53:19;;;;;;;;;7.00;7.00;;;;;39.91;16.27;101107.47;6310906;22;45292;-62
2023/05/04 09:55:45;;;;;;;;;10.67;8.67;;;;;40.33;16.27;101115.03;6310976;22;45269;-61
2023/05/04 09:58:15;;;;;;;;;6.67;6.67;;;;;40.11;16.14;101107.66;6308159;22;46165;-61
2023/05/04 10:00:41;;;;;;;;;6.67;6.67;;;;;38.93;16.04;101109.25;6310096;22;45312;-61
2023/05/04 10:03:06;;;;;;;;;10.67;9.33;;;;;39.08;16.59;101114.97;6308643;22;65886;-61
2023/05/04 10:05:32;;;;;;;;;10.33;8.33;;;;;41.04;15.81;101105.34;6311072;22;45172;-61
2023/05/04 10:07:59;;;;;;;;;14.67;12.00;;;;;43.06;15.60;101108.78;6283043;22;48101;-60
2023/05/04 10:10:25;;;;;;;;;11.33;10.67;;;;;44.10;13.96;101113.31;6310812;22;45342;-61
2023/05/04 10:12:51;;;;;;;;;8.33;8.33;;;;;43.93;14.05;101122.16;6310248;22;45219;-62
2023/05/04 10:15:17;;;;;;;;;12.00;10.67;;;;;45.89;13.60;101111.22;6310647;22;45469;-61
2023/05/04 10:18:01;;;;;;;;;12.00;10.33;;;;;48.44;12.47;101121.97;6308173;22;75948;-61
2023/05/04 10:20:43;;;;;;;;;9.33;8.00;;;;;49.76;12.07;101101.16;6311383;22;45167;-61
2023/05/04 10:23:17;;;;;;;;;12.00;8.67;;;;;49.43;11.06;101098.88;6282847;22;45275;-61
2023/05/04 10:25:54;;;;;;;;;8.33;8.33;;;;;49.89;10.92;101101.28;6310911;22;45227;-61
2023/05/04 10:28:31;;;;;;;;;8.67;8.67;;;;;51.70;10.73;101098.72;6309775;22;46197;-61
2023/05/04 10:30:57;;;;;;;;;10.00;10.00;;;;;53.01;9.89;101086.78;6310745;22;45092;-61
2023/05/04 10:33:23;;;;;;;;;12.67;10.00;;;;;53.96;9.57;101082.50;6308965;22;45309;-61
2023/05/04 10:35:52;;;;;;;;;8.00;8.00;;;;;55.34;9.08;101070.97;6310668;22;45330;-61
2023/05/04 10:38:18;;;;;;;;;9.33;9.33;;;;;56.38;8.50;101070.31;6309954;22;46169;-61
2023/05/04 10:40:47;;;;;;;;;8.00;6.67;;;;;57.31;7.67;101082.13;6310974;22;45265;-61
2023/05/04 10:43:21;;;;;;;;;7.33;7.33;;;;;57.62;7.19;101072.25;6309272;22;45424;-61
2023/05/04 10:45:46;;;;;;;;;8.00;8.00;;;;;57.80;7.26;101077.25;6311233;22;45677;-61
2023/05/04 10:48:12;;;;;;;;;8.67;8.67;;;;;57.94;7.37;101068.00;6309948;22;67940;-61
2023/05/04 10:50:44;;;;;;;;;7.00;7.00;;;;;57.48;7.39;101069.22;6310791;22;45207;-61
2023/05/04 10:53:10;;;;;;;;;8.00;6.67;;;;;55.18;7.71;101064.53;6310624;22;45163;-61
2023/05/04 10:55:44;;;;;;;;;9.33;8.00;;;;;51.69;8.31;101073.59;6310231;22;45229;-61
2023/05/04 10:58:13;;;;;;;;;9.67;8.00;;;;;47.72;9.93;101076.84;6308956;22;45328;-61
2023/05/04 11:00:50;;;;;;;;;9.00;9.00;;;;;44.76;11.45;101065.25;6308203;22;45461;-61
2023/05/04 11:03:15;;;;;;;;;7.67;7.00;;;;;43.10;12.34;101079.97;6310633;22;45278;-62
2023/05/04 11:05:45;;;;;;;;;9.00;8.67;;;;;41.18;13.73;101097.31;6282978;22;45627;-61
2023/05/04 11:08:21;;;;;;;;;7.00;7.00;;;;;38.85;14.69;101086.38;6309171;22;46213;-61
2023/05/04 11:10:48;;;;;;;;;9.33;9.00;;;;;37.56;15.55;101097.44;6308677;22;45198;-62
2023/05/04 11:13:14;;;;;;;;;8.00;7.67;;;;;36.65;16.28;101101.75;6310499;22;45190;-61
2023/05/04 11:15:46;;;;;;;;;7.67;7.67;;;;;35.30;17.36;101093.13;6310619;22;45481;-62
2023/05/04 11:18:12;;;;;;;;;10.00;10.00;;;;;34.21;18.61;101091.81;6282329;22;46975;-61
2023/05/04 11:20:37;;;;;;;;;8.33;7.33;;;;;33.28;19.24;101114.34;6310352;22;45159;-61
2023/05/04 11:23:06;;;;;;;;;10.00;8.67;;;;;32.48;20.26;101120.09;6311121;22;45122;-61
2023/05/04 11:25:34;;;;;;;;;11.00;11.00;;;;;32.15;20.12;101107.19;6310319;22;45245;-61
2023/05/04 11:28:00;;;;;;;;;11.33;11.00;;;;;32.09;21.00;101091.53;6310329;22;45318;-61
2023/05/04 11:30:32;;;;;;;;;8.67;8.33;;;;;31.76;21.16;101104.25;6310731;22;45214;-61
2023/05/04 11:32:59;;;;;;;;;8.67;7.67;;;;;31.47;21.66;101111.78;6310672;22;45304;-61
2023/05/04 11:35:24;;;;;;;;;8.33;7.33;;;;;31.51;22.45;101115.78;6310572;22;45261;-61
2023/05/04 11:37:50;;;;;;;;;8.33;8.33;;;;;31.79;22.00;101116.72;6310674;22;45245;-61
2023/05/04 11:40:18;;;;;;;;;13.33;10.67;;;;;31.89;22.45;101103.41;6308428;22;45634;-62
2023/05/04 11:42:44;;;;;;;;;7.33;7.33;;;;;32.06;22.38;101112.06;6309942;22;45210;-62
2023/05/04 11:45:32;;;;;;;;;8.00;8.00;;;;;32.74;22.48;101110.94;6308217;22;45183;-62
2023/05/04 11:47:59;;;;;;;;;8.00;8.00;;;;;33.83;21.54;101101.91;6308352;22;46403;-62
2023/05/04 11:50:25;;;;;;;;;15.33;14.33;;;;;34.14;20.71;101108.44;6308388;22;45268;-62
2023/05/04 11:53:02;;;;;;;;;13.00;11.00;;;;;33.49;21.06;101112.31;6310697;22;45171;-62
2023/05/04 11:55:29;;;;;;;;;6.67;6.67;;;;;32.78;21.53;101109.44;6310669;22;45150;-62
2023/05/04 11:57:59;;;;;;;;;6.33;6.33;;;;;32.05;22.40;101099.38;6309726;22;46216;-62
2023/05/04 12:00:38;;;;;;;;;7.00;7.00;;;;;31.45;23.23;101105.63;6310269;22;45314;-62
2023/05/04 12:03:14;;;;;;;;;5.67;4.67;;;;;31.00;22.98;101118.97;6310806;22;45230;-62
2023/05/04 12:05:51;;;;;;;;;10.00;8.00;;;;;30.73;24.02;101120.75;6309962;22;45221;-62
2023/05/04 12:08:26;;;;;;;;;8.33;7.67;;;;;30.25;24.75;101116.00;6309757;22;47079;-62
2023/05/04 12:11:15;;;;;;;;;10.00;10.00;;;;;29.89;24.87;101114.22;6309891;22;45265;-62
2023/05/04 12:13:44;;;;;;;;;6.33;5.33;;;;;29.63;25.18;101101.91;6310108;22;45186;-62
2023/05/04 12:16:10;;;;;;;;;5.00;5.00;;;;;30.04;25.59;101120.47;6310062;22;45193;-62
2023/05/04 12:18:36;;;;;;;;;8.33;7.33;;;;;31.08;24.78;101094.13;6309957;22;46035;-61
2023/05/04 12:21:27;;;;;;;;;9.33;8.00;;;;;31.59;24.08;101092.78;6310376;22;49579;-62
2023/05/04 12:23:55;;;;;;;;;8.67;8.00;;;;;31.74;24.59;101100.00;6304362;22;45171;-61
2023/05/04 12:26:20;;;;;;;;;10.00;8.33;;;;;31.90;24.34;101102.34;6307809;22;45491;-61
2023/05/04 12:28:45;;;;;;;;;6.00;6.00;;;;;32.28;24.39;101103.59;6310064;22;45300;-61
2023/05/04 12:31:11;;;;;;;;;6.33;6.33;;;;;32.68;23.82;101106.28;6310098;22;45250;-62
2023/05/04 12:33:36;;;;;;;;;8.00;7.67;;;;;32.46;23.33;101100.19;6310104;22;45228;-62
2023/05/04 12:36:03;;;;;;;;;8.33;8.33;;;;;32.10;23.97;101110.59;6310054;22;45384;-62
2023/05/04 12:38:28;;;;;;;;;8.00;7.00;;;;;31.97;23.82;101100.44;6309129;22;45333;-62
2023/05/04 12:40:54;;;;;;;;;6.00;6.00;;;;;31.96;23.68;101104.22;6310281;22;45264;-62
2023/05/04 12:43:22;;;;;;;;;7.00;7.00;;;;;31.96;23.74;101100.66;6309485;22;45366;-61
2023/05/04 12:45:50;;;;;;;;;7.00;7.00;;;;;31.94;23.36;101092.63;6309479;22;45183;-62
2023/05/04 12:48:16;;;;;;;;;7.00;6.00;;;;;31.75;24.08;101082.47;6307876;22;45340;-62
2023/05/04 12:50:45;;;;;;;;;6.33;4.67;;;;;31.84;23.87;101084.78;6309992;22;45292;-62
2023/05/04 12:53:10;;;;;;;;;6.33;6.33;;;;;31.97;23.79;101097.69;6309400;22;45177;-62
2023/05/04 12:55:36;;;;;;;;;7.00;6.00;;;;;32.07;23.77;101099.16;6309188;22;45293;-61
2023/05/04 12:58:02;;;;;;;;;6.33;6.33;;;;;31.84;23.09;101106.78;6308914;22;46200;-62
2023/05/04 13:00:30;;;;;;;;;8.00;7.67;;;;;31.45;23.83;101113.88;6306477;22;45243;-62
2023/05/04 13:02:57;;;;;;;;;11.67;6.67;;;;;31.43;24.40;101118.75;6310250;22;45263;-62
2023/05/04 13:05:22;;;;;;;;;8.00;8.00;;;;;31.46;24.22;101111.97;6309887;22;45242;-62
2023/05/04 13:07:47;;;;;;;;;7.67;5.67;;;;;31.36;24.18;101106.88;6309985;22;72465;-62
2023/05/04 13:10:13;;;;;;;;;9.67;8.67;;;;;31.53;24.51;101101.00;6310816;22;55836;-62
2023/05/04 13:12:38;;;;;;;;;6.00;6.00;;;;;31.77;23.99;101092.19;6310789;22;54345;-62
2023/05/04 13:15:04;;;;;;;;;9.67;9.00;;;;;32.01;23.88;101098.09;6309430;22;45275;-62
2023/05/04 13:17:32;;;;;;;;;6.33;6.33;;;;;32.03;24.00;101106.97;6310879;22;45935;-62
2023/05/04 13:19:58;;;;;;;;;7.67;6.33;;;;;31.82;24.04;101105.28;6309022;22;45224;-62
2023/05/04 13:22:23;;;;;;;;;10.00;9.00;;;;;31.42;24.25;101122.53;6311095;22;45279;-62
2023/05/04 13:24:48;;;;;;;;;8.00;6.33;;;;;30.94;25.10;101119.81;6311106;22;45188;-62
2023/05/04 13:27:13;;;;;;;;;8.00;8.00;;;;;30.48;25.17;101121.22;6309792;22;71895;-62
2023/05/04 13:29:40;;;;;;;;;5.67;4.00;;;;;30.30;26.09;101124.47;6308732;22;57217;-62
2023/05/04 13:32:06;;;;;;;;;7.33;7.33;;;;;30.43;25.88;101116.31;6311150;22;45305;-61
2023/05/04 13:34:33;;;;;;;;;8.67;8.67;;;;;30.79;26.36;101128.16;6311412;22;45196;-62
2023/05/04 13:36:58;;;;;;;;;9.67;8.67;;;;;30.89;26.27;101127.81;6311227;22;45340;-62
2023/05/04 13:39:24;;;;;;;;;9.00;7.67;;;;;30.91;26.05;101129.31;6311178;22;45225;-62
2023/05/04 13:41:49;;;;;;;;;6.00;6.00;;;;;30.88;26.20;101121.44;6311093;22;45211;-62
2023/05/04 13:44:15;;;;;;;;;10.00;8.50;;;;;30.72;26.69;101122.66;6310833;22;45404;-62
2023/05/04 13:46:40;;;;;;;;;8.33;8.33;;;;;30.50;27.10;101122.72;6310384;22;61462;-62
2023/05/04 13:49:05;;;;;;;;;6.00;6.00;;;;;30.44;27.27;101128.13;6310047;22;71019;-62
2023/05/04 13:51:31;;;;;;;;;9.67;9.67;;;;;30.32;27.76;101128.69;6311082;22;45392;-63
2023/05/04 13:53:56;;;;;;;;;13.33;9.00;;;;;30.20;27.93;101124.81;6311403;22;45465;-62
2023/05/04 13:56:22;;;;;;;;;7.67;7.67;;;;;29.95;27.43;101105.19;6309825;22;69013;-62
2023/05/04 13:58:47;;;;;;;;;8.67;8.33;;;;;29.67;28.03;101095.00;6309518;22;45211;-62
2023/05/04 14:01:13;;;;;;;;;9.33;9.33;;;;;29.34;28.34;101090.88;6310544;22;45443;-62
2023/05/04 14:03:38;;;;;;;;;8.67;8.67;;;;;29.12;28.87;101098.16;6308656;22;66434;-62
2023/05/04 14:06:03;;;;;;;;;13.67;9.00;;;;;28.84;29.27;101089.84;6311069;22;45849;-62
2023/05/04 14:08:29;;;;;;;;;8.00;8.00;;;;;28.65;30.63;101083.03;6310571;22;45278;-63
2023/05/04 14:10:54;;;;;;;;;7.33;7.00;;;;;28.51;30.37;101091.06;6311308;22;45761;-63
2023/05/04 14:13:20;;;;;;;;;9.33;7.67;;;;;28.49;30.78;101095.00;6309064;22;68806;-62
2023/05/04 14:15:46;;;;;;;;;8.33;8.33;;;;;28.63;30.71;101093.28;6308569;22;46901;-62
2023/05/04 14:18:11;;;;;;;;;8.67;8.33;;;;;28.78;30.37;101098.81;6311093;22;45311;-62
2023/05/04 14:20:37;;;;;;;;;9.33;9.33;;;;;28.69;30.73;101092.56;6310164;22;63196;-63
2023/05/04 14:23:02;;;;;;;;;9.67;9.67;;;;;28.57;30.95;101088.59;6311338;22;45294;-63
2023/05/04 14:25:28;;;;;;;;;6.00;6.00;;;;;28.39;31.48;101101.59;6310720;22;45967;-63
2023/05/04 14:27:53;;;;;;;;;7.33;6.67;;;;;28.46;31.39;101098.97;6310110;22;45282;-63
2023/05/04 14:30:18;;;;;;;;;5.00;4.00;;;;;28.49;31.54;101104.06;6311293;22;45306;-63
2023/05/04 14:32:44;;;;;;;;;10.33;9.33;;;;;28.51;31.36;101092.91;6310622;22;49559;-63
2023/05/04 14:35:09;;;;;;;;;7.67;6.33;;;;;28.63;31.51;101096.03;6310195;22;47092;-63
2023/05/04 14:37:36;;;;;;;;;7.00;7.00;;;;;28.66;31.38;101093.81;6310808;22;45257;-63
2023/05/04 14:40:05;;;;;;;;;7.00;7.00;;;;;28.73;31.52;101091.16;6310953;22;45095;-63
2023/05/04 14:42:30;;;;;;;;;7.33;6.67;;;;;28.65;31.71;101099.44;6308735;22;45287;-63
2023/05/04 14:44:56;;;;;;;;;8.00;7.00;;;;;28.53;31.82;101088.13;6310982;22;46073;-63
2023/05/04 14:47:21;;;;;;;;;7.00;7.00;;;;;28.41;32.03;101097.81;6308859;22;45271;-63
2023/05/04 14:49:46;;;;;;;;;6.00;6.00;;;;;28.43;32.64;101091.13;6310151;22;45314;-63
2023/05/04 14:52:13;;;;;;;;;7.33;7.33;;;;;28.37;32.25;101094.63;6310704;22;45413;-62
2023/05/04 14:54:40;;;;;;;;;9.33;8.00;;;;;28.18;32.57;101088.63;6310936;22;45289;-63
2023/05/04 14:57:07;;;;;;;;;7.00;7.00;;;;;28.16;32.65;101088.00;6281499;22;45257;-63
2023/05/04 14:59:33;;;;;;;;;7.00;7.00;;;;;28.10;33.17;101080.53;6310812;22;45101;-63
2023/05/04 15:01:58;;;;;;;;;6.00;6.00;;;;;28.09;33.03;101089.75;6310498;22;45178;-63
2023/05/04 15:04:23;;;;;;;;;9.33;8.33;;;;;28.27;33.15;101094.06;6311043;22;45162;-63
2023/05/04 15:06:49;;;;;;;;;6.00;6.00;;;;;28.51;33.19;101088.31;6310041;22;62202;-63
2023/05/04 15:09:14;;;;;;;;;7.00;6.33;;;;;28.70;32.86;101086.06;6309518;22;45185;-63
2023/05/04 15:11:39;;;;;;;;;8.33;6.67;;;;;28.91;33.04;101081.72;6310383;22;45147;-63
2023/05/04 15:14:05;;;;;;;;;6.33;6.33;;;;;29.09;32.22;101079.41;6310154;22;45999;-63
2023/05/04 15:16:31;;;;;;;;;4.33;4.33;;;;;29.18;32.09;101083.72;6310368;22;45324;-63
2023/05/04 15:18:57;;;;;;;;;7.00;5.67;;;;;29.14;31.57;101095.25;6311034;22;45183;-63
2023/05/04 15:21:23;;;;;;;;;2.33;2.33;;;;;29.06;31.42;101093.47;6310738;22;45481;-63
2023/05/04 15:23:48;;;;;;;;;3.33;3.33;;;;;28.91;31.07;101090.75;6309515;22;45345;-64
2023/05/04 15:26:14;;;;;;;;;5.33;4.67;;;;;28.83;31.50;101097.19;6281569;22;63767;-64
2023/05/04 15:28:39;;;;;;;;;3.50;3.50;;;;;28.72;31.11;101100.38;6308803;22;45955;-62
2023/05/04 15:31:06;;;;;;;;;3.67;3.67;;;;;28.64;31.37;101103.19;6310549;22;45244;-62
2023/05/04 15:33:32;;;;;;;;;2.25;2.25;;;;;28.64;31.38;101103.19;6308611;22;48051;-63
2023/05/04 15:35:57;;;;;;;;;4.00;3.33;;;;;28.62;31.60;101100.66;6309040;22;45299;-63
2023/05/04 15:38:22;;;;;;;;;5.67;4.33;;;;;28.73;31.59;101102.09;6309485;22;51383;-63
2023/05/04 15:40:48;;;;;;;;;4.00;4.00;;;;;28.88;31.66;101093.88;6309208;22;45238;-63
2023/05/04 15:43:14;;;;;;;;;4.67;4.67;;;;;28.97;31.64;101097.34;6307668;22;63628;-63
2023/05/04 15:45:39;;;;;;;;;4.33;4.33;;;;;29.05;31.27;101108.22;6310639;22;45162;-63
2023/05/04 15:48:04;;;;;;;;;3.00;3.00;;;;;29.02;31.38;101111.31;6309132;22;45251;-63
2023/05/04 15:50:30;;;;;;;;;6.67;4.67;;;;;28.88;31.72;101115.78;6308707;22;45206;-63
2023/05/04 15:52:56;;;;;;;;;6.33;5.33;;;;;28.77;32.05;101108.88;6308705;22;46909;-63
2023/05/04 15:55:21;;;;;;;;;4.00;4.00;;;;;28.75;32.19;101105.50;6309667;22;45280;-63
2023/05/04 15:57:46;;;;;;;;;5.67;5.00;;;;;28.72;32.31;101108.59;6308169;22;45263;-62
2023/05/04 16:00:13;;;;;;;;;5.33;5.33;;;;;28.69;32.41;101111.72;6309913;22;59687;-63
2023/05/04 16:02:38;;;;;;;;;5.00;3.00;;;;;28.63;32.21;101104.22;6310274;22;45271;-63
2023/05/04 16:05:04;;;;;;;;;6.00;5.00;;;;;28.50;32.92;101107.63;6308952;22;45199;-61
2023/05/04 16:07:30;;;;;;;;;5.33;5.33;;;;;28.35;32.80;101108.47;6310136;22;45218;-61
2023/05/04 16:09:55;;;;;;;;;7.00;6.00;;;;;28.28;32.96;101109.41;6309813;22;45376;-62
2023/05/04 16:12:21;;;;;;;;;4.00;4.00;;;;;28.14;33.06;101109.19;6309463;22;46070;-62
2023/05/04 16:14:47;;;;;;;;;3.67;3.67;;;;;28.08;33.90;101099.00;6310318;22;45143;-62
2023/05/04 16:17:12;;;;;;;;;7.00;4.33;;;;;28.00;33.47;101104.50;6310013;22;45461;-62